Méteo en hiver: VFR into IMC

24.01.2020

L’hiver est là, avec peu de neige mais parfois avec beaucoup de nuages et de brouillard, surtout dans le plateau suisse. Bien que nous ayons de nombreux outils et applications disponibles aujourd’hui pour la planification météorologique, le GO ou NOGO se produit souvent à la dernière minute. En parlant de météo : un exemple actuel montre combien il est difficile de distinguer les condition VMC et IMC. Voyez aussi l’exemple actuel sur Sion et la vidéo ci-dessous.

LSGS
METAR/SPECI
METAR LSGS 241350Z 24008KT 9000 BKN100 03/M01 Q1023=
TAF
LSGS 241425Z 2415/2424 24006KT 9000 BKN100=

 

 

 

 


Partager


Posts similaires